createdAt,value
2023-02-13T00:00:12.564Z,23.10
2023-02-13T00:02:39.051Z,21.63
2023-02-13T00:05:05.728Z,21.73
2023-02-13T00:07:32.153Z,22.45
2023-02-13T00:09:58.496Z,18.77
2023-02-13T00:12:24.979Z,24.07
2023-02-13T00:14:51.431Z,23.70
2023-02-13T00:17:17.808Z,22.08
2023-02-13T00:19:44.248Z,22.63
2023-02-13T00:22:10.664Z,24.17
2023-02-13T00:24:37.118Z,21.90
2023-02-13T00:27:03.499Z,23.00
2023-02-13T00:29:29.900Z,23.05
2023-02-13T00:31:56.379Z,20.50
2023-02-13T00:34:22.955Z,22.58
2023-02-13T00:36:49.348Z,22.37
2023-02-13T00:39:15.715Z,24.25
2023-02-13T00:41:42.088Z,22.05
2023-02-13T00:44:09.604Z,23.38
2023-02-13T00:46:36.498Z,23.65
2023-02-13T00:49:03.560Z,22.77
2023-02-13T00:51:30.342Z,23.23
2023-02-13T00:53:56.974Z,22.95
2023-02-13T00:56:23.402Z,19.77
2023-02-13T00:58:49.819Z,23.15
2023-02-13T01:01:16.292Z,24.47
2023-02-13T01:03:42.882Z,26.65
2023-02-13T01:06:09.321Z,24.58
2023-02-13T01:08:39.162Z,23.38
2023-02-13T01:11:06.461Z,20.98
2023-02-13T01:13:33.511Z,25.43
2023-02-13T01:16:00.233Z,26.95
2023-02-13T01:18:26.629Z,24.73
2023-02-13T01:20:58.061Z,23.67
2023-02-13T01:23:24.559Z,21.40
2023-02-13T01:25:51.661Z,21.63
2023-02-13T01:28:18.298Z,25.13
2023-02-13T01:30:44.778Z,25.67
2023-02-13T01:33:11.813Z,26.02
2023-02-13T01:35:41.083Z,23.45
2023-02-13T01:38:07.477Z,23.23
2023-02-13T01:40:33.898Z,24.95
2023-02-13T01:43:00.365Z,25.65
2023-02-13T01:45:29.349Z,24.20
2023-02-13T01:48:16.302Z,23.73
2023-02-13T01:50:51.356Z,25.27
2023-02-13T01:53:31.416Z,25.77
2023-02-13T01:56:29.564Z,24.45
2023-02-13T01:59:01.383Z,25.30
2023-02-13T02:01:28.920Z,23.55
2023-02-13T02:04:10.723Z,27.10
2023-02-13T02:06:47.132Z,22.27
2023-02-13T02:09:25.015Z,24.48
2023-02-13T02:11:56.048Z,25.30
2023-02-13T02:14:22.589Z,26.25
2023-02-13T02:16:48.978Z,23.43
2023-02-13T02:19:33.759Z,25.63
2023-02-13T02:22:41.607Z,24.60
2023-02-13T02:25:45.230Z,24.15
2023-02-13T02:28:26.420Z,25.58
2023-02-13T02:31:17.355Z,24.87
2023-02-13T02:33:52.695Z,27.48
2023-02-13T02:36:22.098Z,23.63
2023-02-13T02:38:57.636Z,24.67
2023-02-13T02:41:41.937Z,27.08
2023-02-13T02:44:38.089Z,24.03
2023-02-13T02:47:42.035Z,23.50
2023-02-13T02:50:23.375Z,24.38
2023-02-13T02:52:56.766Z,23.73
2023-02-13T02:55:47.975Z,25.20
2023-02-13T02:58:56.373Z,25.83
2023-02-13T03:01:45.620Z,23.27
2023-02-13T03:04:38.012Z,23.95
2023-02-13T03:07:09.328Z,23.60
2023-02-13T03:09:59.324Z,22.55
2023-02-13T03:12:55.171Z,26.37
2023-02-13T03:15:23.607Z,24.23
2023-02-13T03:18:08.318Z,23.65
2023-02-13T03:21:15.304Z,21.95
2023-02-13T03:24:26.005Z,23.65
2023-02-13T03:27:42.480Z,24.40
2023-02-13T03:30:22.495Z,25.75
2023-02-13T03:33:13.005Z,24.08
2023-02-13T03:36:12.202Z,26.77
2023-02-13T03:38:58.143Z,22.77
2023-02-13T03:41:38.550Z,23.63
2023-02-13T03:44:08.007Z,28.48
2023-02-13T03:46:39.097Z,27.15
2023-02-13T03:49:28.859Z,26.90
2023-02-13T03:52:05.348Z,25.90
2023-02-13T03:54:57.128Z,26.93
2023-02-13T03:57:43.769Z,27.25
2023-02-13T04:00:13.520Z,23.50
2023-02-13T04:02:52.761Z,27.27
2023-02-13T04:05:24.682Z,27.75
2023-02-13T04:07:51.250Z,25.67
2023-02-13T04:10:19.183Z,23.75
2023-02-13T04:12:51.247Z,26.98
2023-02-13T04:15:25.950Z,25.90
2023-02-13T04:17:58.869Z,29.33
2023-02-13T04:20:28.602Z,25.17
2023-02-13T04:22:54.949Z,26.67
2023-02-13T04:25:21.370Z,26.30
2023-02-13T04:27:47.811Z,30.45
2023-02-13T04:30:14.600Z,26.15
2023-02-13T04:32:40.973Z,29.90
2023-02-13T04:35:07.867Z,27.00
2023-02-13T04:37:34.227Z,26.50
2023-02-13T04:40:00.596Z,27.33
2023-02-13T04:42:26.958Z,26.92
2023-02-13T04:44:53.325Z,26.77
2023-02-13T04:47:19.690Z,27.55
2023-02-13T04:49:46.057Z,27.63
2023-02-13T04:52:15.192Z,25.67
2023-02-13T04:54:41.768Z,22.33
2023-02-13T04:57:08.153Z,25.63
2023-02-13T04:59:34.515Z,25.40
2023-02-13T05:02:00.971Z,25.17
2023-02-13T05:04:28.843Z,27.50
2023-02-13T05:06:55.322Z,26.00
2023-02-13T05:09:21.766Z,27.00
2023-02-13T05:11:51.820Z,26.20
2023-02-13T05:14:18.460Z,25.88
2023-02-13T05:16:44.990Z,25.63
2023-02-13T05:19:11.518Z,28.23
2023-02-13T05:21:56.389Z,27.10
2023-02-13T05:24:22.830Z,28.15
2023-02-13T05:26:49.252Z,27.10
2023-02-13T05:29:18.629Z,25.20
2023-02-13T05:31:56.472Z,27.05
2023-02-13T05:34:25.642Z,25.83
2023-02-13T05:36:52.071Z,27.10
2023-02-13T05:39:18.824Z,28.48
2023-02-13T05:41:46.444Z,28.83
2023-02-13T05:44:13.459Z,28.20
2023-02-13T05:46:41.243Z,27.07
2023-02-13T05:49:09.245Z,26.58
2023-02-13T05:51:36.400Z,26.02
2023-02-13T05:54:03.148Z,29.13
2023-02-13T05:56:29.633Z,27.80
2023-02-13T05:58:57.133Z,25.53
2023-02-13T06:01:24.657Z,27.23
2023-02-13T06:03:51.397Z,26.73
2023-02-13T06:06:17.939Z,29.13
2023-02-13T06:08:44.575Z,28.90
2023-02-13T06:11:13.349Z,28.33
2023-02-13T06:13:42.310Z,29.58
2023-02-13T06:16:09.793Z,27.08
2023-02-13T06:18:36.530Z,29.08
2023-02-13T06:21:03.643Z,26.35
2023-02-13T06:23:31.144Z,30.70
2023-02-13T06:26:02.240Z,29.92
2023-02-13T06:28:28.614Z,28.02
2023-02-13T06:30:55.394Z,30.52
2023-02-13T06:33:22.048Z,28.95
2023-02-13T06:35:48.407Z,28.07
2023-02-13T06:38:14.791Z,28.13
2023-02-13T06:40:41.207Z,29.33
2023-02-13T06:43:07.664Z,32.58
2023-02-13T06:45:34.076Z,28.13
2023-02-13T06:48:00.415Z,29.63
2023-02-13T06:50:26.833Z,29.60
2023-02-13T06:52:53.237Z,27.95
2023-02-13T06:55:20.720Z,27.15
2023-02-13T06:57:47.504Z,29.55
2023-02-13T07:00:15.959Z,26.87
2023-02-13T07:02:43.980Z,29.55
2023-02-13T07:05:11.407Z,27.52
2023-02-13T07:07:40.458Z,27.23
2023-02-13T07:10:09.251Z,28.77
2023-02-13T07:12:36.668Z,30.40
2023-02-13T07:15:04.869Z,27.95
2023-02-13T07:17:31.566Z,27.45
2023-02-13T07:19:57.948Z,30.75
2023-02-13T07:22:24.329Z,28.92
2023-02-13T07:24:50.689Z,27.23
2023-02-13T07:27:17.179Z,28.08
2023-02-13T07:29:43.556Z,31.52
2023-02-13T07:32:10.210Z,31.10
2023-02-13T07:34:36.601Z,28.52
2023-02-13T07:37:03.004Z,26.17
2023-02-13T07:39:31.476Z,26.52
2023-02-13T07:41:57.834Z,32.08
2023-02-13T07:44:24.235Z,28.45
2023-02-13T07:46:50.670Z,28.17
2023-02-13T07:49:17.049Z,27.43
2023-02-13T07:51:43.401Z,31.15
2023-02-13T07:54:09.798Z,30.40
2023-02-13T07:56:36.157Z,31.27
2023-02-13T07:59:02.527Z,32.53
2023-02-13T08:01:28.952Z,28.00
2023-02-13T08:03:55.401Z,34.75
2023-02-13T08:06:22.424Z,30.60
2023-02-13T08:08:48.775Z,29.25
2023-02-13T08:11:46.758Z,30.65
2023-02-13T08:14:13.136Z,32.57
2023-02-13T08:16:39.582Z,31.20
2023-02-13T08:19:05.985Z,32.50
2023-02-13T08:21:32.416Z,31.50
2023-02-13T08:23:58.955Z,33.70
2023-02-13T08:26:25.372Z,30.93
2023-02-13T08:28:51.805Z,34.70
2023-02-13T08:31:18.245Z,31.27
2023-02-13T08:33:44.721Z,35.42
2023-02-13T08:36:11.190Z,30.48
2023-02-13T08:38:37.609Z,31.30
2023-02-13T08:41:04.110Z,31.58
2023-02-13T08:43:30.510Z,29.58
2023-02-13T08:46:01.130Z,31.90
2023-02-13T08:48:27.915Z,29.17
2023-02-13T08:50:54.328Z,32.03
2023-02-13T08:53:20.693Z,30.08
2023-02-13T08:55:58.362Z,32.83
2023-02-13T08:58:25.045Z,34.55
2023-02-13T09:00:51.639Z,33.80
2023-02-13T09:03:18.483Z,32.33
2023-02-13T09:05:45.024Z,31.25
2023-02-13T09:08:13.596Z,32.85
2023-02-13T09:10:41.679Z,31.75
2023-02-13T09:13:08.090Z,33.80
2023-02-13T09:15:34.587Z,33.97
2023-02-13T09:18:01.195Z,36.25
2023-02-13T09:20:27.685Z,35.42
2023-02-13T09:22:55.615Z,35.47
2023-02-13T09:25:21.998Z,35.88
2023-02-13T09:27:48.414Z,35.97
2023-02-13T09:30:23.017Z,36.05
2023-02-13T09:32:51.487Z,34.75
2023-02-13T09:35:18.676Z,35.72
2023-02-13T09:37:48.194Z,36.97
2023-02-13T09:40:20.781Z,35.40
2023-02-13T09:42:48.649Z,35.88
2023-02-13T09:45:17.266Z,34.58
2023-02-13T09:47:44.849Z,35.25
2023-02-13T09:50:31.405Z,35.83
2023-02-13T09:52:59.291Z,36.30
2023-02-13T09:55:52.885Z,34.90
2023-02-13T09:58:32.930Z,33.78
2023-02-13T10:01:03.474Z,35.30
2023-02-13T10:03:34.852Z,37.42
2023-02-13T10:06:17.869Z,34.10
2023-02-13T10:08:53.204Z,36.75
2023-02-13T10:11:45.270Z,36.35
2023-02-13T10:14:52.840Z,36.25
2023-02-13T10:17:39.262Z,37.05
2023-02-13T10:20:18.139Z,38.50
2023-02-13T10:22:49.665Z,35.55
2023-02-13T10:25:24.114Z,36.53
2023-02-13T10:27:57.108Z,35.42
2023-02-13T10:30:28.418Z,35.63
2023-02-13T10:33:19.617Z,40.40
2023-02-13T10:36:00.982Z,35.17
2023-02-13T10:38:31.436Z,38.78
2023-02-13T10:41:16.422Z,39.20
2023-02-13T10:44:19.078Z,36.38
2023-02-13T10:47:14.951Z,35.13
2023-02-13T10:50:19.518Z,32.17
2023-02-13T10:53:12.948Z,33.13
2023-02-13T10:56:10.382Z,33.97
2023-02-13T10:58:42.858Z,38.33
2023-02-13T11:01:32.077Z,35.67
2023-02-13T11:04:09.347Z,37.38
2023-02-13T11:06:38.028Z,35.40
2023-02-13T11:09:07.223Z,32.78
2023-02-13T11:11:43.943Z,38.17
2023-02-13T11:14:26.922Z,33.37
2023-02-13T11:17:02.970Z,35.85
2023-02-13T11:19:35.148Z,33.60
2023-02-13T11:22:08.651Z,31.67
2023-02-13T11:24:36.569Z,31.67
2023-02-13T11:27:12.862Z,33.50
2023-02-13T11:29:57.551Z,33.22
2023-02-13T11:32:25.788Z,34.40
2023-02-13T11:34:54.626Z,31.15
2023-02-13T11:37:28.253Z,32.47
2023-02-13T11:40:00.159Z,34.50
2023-02-13T11:42:31.374Z,35.67
2023-02-13T11:45:04.023Z,34.10
2023-02-13T11:47:39.254Z,30.67
2023-02-13T11:50:27.825Z,33.28
2023-02-13T11:52:58.266Z,36.77
2023-02-13T11:55:36.067Z,34.00
2023-02-13T11:58:21.494Z,33.75
2023-02-13T12:00:48.068Z,32.08
2023-02-13T12:03:29.361Z,33.63
2023-02-13T12:06:13.797Z,32.63
2023-02-13T12:08:45.996Z,31.65
2023-02-13T12:11:30.131Z,34.22
2023-02-13T12:13:57.442Z,30.92
2023-02-13T12:16:33.959Z,33.85
2023-02-13T12:19:04.912Z,32.67
2023-02-13T12:22:09.282Z,33.17
2023-02-13T12:25:04.865Z,32.85
2023-02-13T12:27:57.601Z,31.85
2023-02-13T12:30:48.807Z,33.58
2023-02-13T12:33:24.017Z,30.53
2023-02-13T12:36:10.433Z,32.17
2023-02-13T12:38:42.702Z,30.83
2023-02-13T12:41:24.961Z,31.10
2023-02-13T12:44:11.646Z,31.85
2023-02-13T12:46:52.878Z,32.43
2023-02-13T12:49:25.043Z,32.40
2023-02-13T12:52:25.550Z,30.95
2023-02-13T12:55:18.052Z,29.98
2023-02-13T12:58:12.305Z,32.53
2023-02-13T13:00:48.344Z,32.53
2023-02-13T13:03:28.693Z,32.95
2023-02-13T13:06:22.550Z,30.42
2023-02-13T13:09:15.961Z,32.72
2023-02-13T13:12:03.399Z,31.13
2023-02-13T13:14:44.319Z,31.80
2023-02-13T13:17:22.893Z,31.02
2023-02-13T13:19:55.313Z,31.42
2023-02-13T13:22:42.178Z,30.13
2023-02-13T13:25:26.282Z,30.75
2023-02-13T13:27:57.656Z,29.37
2023-02-13T13:30:30.405Z,29.83
2023-02-13T13:33:04.856Z,32.67
2023-02-13T13:35:32.933Z,32.00
2023-02-13T13:38:06.421Z,31.95
2023-02-13T13:41:01.844Z,33.03
2023-02-13T13:43:40.540Z,31.38
2023-02-13T13:46:18.013Z,28.65
2023-02-13T13:48:50.153Z,30.73
2023-02-13T13:51:19.006Z,30.63
2023-02-13T13:54:00.676Z,30.43
2023-02-13T13:56:47.505Z,30.27
2023-02-13T13:59:18.516Z,30.95
2023-02-13T14:01:44.978Z,30.33
2023-02-13T14:04:38.298Z,33.50
2023-02-13T14:07:04.599Z,31.50
2023-02-13T14:09:38.877Z,33.83
2023-02-13T14:12:30.131Z,32.85
2023-02-13T14:14:58.460Z,32.10
2023-02-13T14:17:46.511Z,33.35
2023-02-13T14:20:22.999Z,31.63
2023-02-13T14:22:49.444Z,32.72
2023-02-13T14:25:24.756Z,33.92
2023-02-13T14:28:03.463Z,33.42
2023-02-13T14:30:34.256Z,33.22
2023-02-13T14:33:05.955Z,33.23
2023-02-13T14:35:34.971Z,33.60
2023-02-13T14:38:04.701Z,33.55
2023-02-13T14:40:50.514Z,31.45
2023-02-13T14:43:21.894Z,32.55
2023-02-13T14:45:56.349Z,35.17
2023-02-13T14:48:34.519Z,32.67
2023-02-13T14:51:01.871Z,29.70
2023-02-13T14:53:46.456Z,31.17
2023-02-13T14:56:15.116Z,35.45
2023-02-13T14:58:49.969Z,32.30
2023-02-13T15:01:42.432Z,34.03
2023-02-13T15:04:17.602Z,34.22
2023-02-13T15:06:45.900Z,33.15
2023-02-13T15:09:23.241Z,32.67
2023-02-13T15:11:49.955Z,37.40
2023-02-13T15:14:33.245Z,32.10
2023-02-13T15:17:06.261Z,32.53
2023-02-13T15:19:35.875Z,33.97
2023-02-13T15:22:03.953Z,36.20
2023-02-13T15:24:37.630Z,34.50
2023-02-13T15:27:06.523Z,35.95
2023-02-13T15:29:47.827Z,33.75
2023-02-13T15:32:25.372Z,32.28
2023-02-13T15:34:51.744Z,34.35
2023-02-13T15:37:28.530Z,32.93
2023-02-13T15:39:54.915Z,36.33
2023-02-13T15:42:21.784Z,33.33
2023-02-13T15:44:50.920Z,35.88
2023-02-13T15:47:25.498Z,36.63
2023-02-13T15:49:52.218Z,39.03
2023-02-13T15:52:37.842Z,38.03
2023-02-13T15:55:04.597Z,37.92
2023-02-13T15:57:31.977Z,36.97
2023-02-13T16:00:00.264Z,37.88
2023-02-13T16:02:46.051Z,39.73
2023-02-13T16:05:14.760Z,37.72
2023-02-13T16:07:55.801Z,38.65
2023-02-13T16:10:28.318Z,41.35
2023-02-13T16:12:56.606Z,39.40
2023-02-13T16:15:27.899Z,38.73
2023-02-13T16:17:55.089Z,40.97
2023-02-13T16:20:25.900Z,38.42
2023-02-13T16:23:06.260Z,42.42
2023-02-13T16:25:39.391Z,40.33
2023-02-13T16:28:23.721Z,41.33
2023-02-13T16:31:00.794Z,38.20
2023-02-13T16:33:28.551Z,46.00
2023-02-13T16:36:00.757Z,62.28
2023-02-13T16:38:48.284Z,74.28
2023-02-13T16:41:17.661Z,78.50
2023-02-13T16:43:54.176Z,79.15
2023-02-13T16:46:29.114Z,66.18
2023-02-13T16:48:59.080Z,55.67
2023-02-13T16:51:37.626Z,53.88
2023-02-13T16:54:10.212Z,46.57
2023-02-13T16:56:47.671Z,44.28
2023-02-13T16:59:32.452Z,44.90
2023-02-13T17:02:21.860Z,42.75
2023-02-13T17:05:07.328Z,41.50
2023-02-13T17:07:36.334Z,44.50
2023-02-13T17:10:18.054Z,43.80
2023-02-13T17:12:45.483Z,46.78
2023-02-13T17:15:17.631Z,45.83
2023-02-13T17:17:45.723Z,46.00
2023-02-13T17:20:17.790Z,43.13
2023-02-13T17:22:46.401Z,46.90
2023-02-13T17:25:20.742Z,44.00
2023-02-13T17:27:47.941Z,51.28
2023-02-13T17:30:23.123Z,48.15
2023-02-13T17:32:53.674Z,46.67
2023-02-13T17:35:20.046Z,48.10
2023-02-13T17:37:46.423Z,46.63
2023-02-13T17:40:19.311Z,48.90
2023-02-13T17:42:47.510Z,50.63
2023-02-13T17:45:16.773Z,51.33
2023-02-13T17:47:43.152Z,49.08
2023-02-13T17:50:11.126Z,54.55
2023-02-13T17:52:39.061Z,54.25
2023-02-13T17:55:07.113Z,51.58
2023-02-13T17:57:33.736Z,51.37
2023-02-13T18:00:03.405Z,49.65
2023-02-13T18:02:29.782Z,49.78
2023-02-13T18:04:56.247Z,51.65
2023-02-13T18:07:22.623Z,51.47
2023-02-13T18:09:48.995Z,47.27
2023-02-13T18:12:18.869Z,52.75
2023-02-13T18:14:45.333Z,53.38
2023-02-13T18:17:12.117Z,58.60
2023-02-13T18:19:38.890Z,53.70
2023-02-13T18:22:07.773Z,64.70
2023-02-13T18:24:36.101Z,53.42
2023-02-13T18:27:03.365Z,55.78
2023-02-13T18:29:29.860Z,56.35
2023-02-13T18:31:56.824Z,57.13
2023-02-13T18:34:24.790Z,58.50
2023-02-13T18:36:51.170Z,59.33
2023-02-13T18:39:17.829Z,54.35
2023-02-13T18:41:44.496Z,57.75
2023-02-13T18:44:17.331Z,62.35
2023-02-13T18:46:49.887Z,66.00
2023-02-13T18:49:16.529Z,68.15
2023-02-13T18:51:44.335Z,67.95
2023-02-13T18:54:11.299Z,70.20
2023-02-13T18:56:37.756Z,74.50
2023-02-13T18:59:04.219Z,61.07
2023-02-13T19:01:30.660Z,73.10
2023-02-13T19:03:57.088Z,74.65
2023-02-13T19:06:24.959Z,70.07
2023-02-13T19:08:51.775Z,71.88
2023-02-13T19:11:21.476Z,73.60
2023-02-13T19:13:47.884Z,78.90
2023-02-13T19:16:17.564Z,82.45
2023-02-13T19:18:47.333Z,79.18
2023-02-13T19:21:14.852Z,82.50
2023-02-13T19:23:41.814Z,80.37
2023-02-13T19:26:13.901Z,81.20
2023-02-13T19:28:40.681Z,82.15
2023-02-13T19:31:14.948Z,89.38
2023-02-13T19:33:42.092Z,90.07
2023-02-13T19:36:11.924Z,84.83
2023-02-13T19:38:41.107Z,92.82
2023-02-13T19:41:10.300Z,92.28
2023-02-13T19:43:37.163Z,112.68
2023-02-13T19:46:10.063Z,109.25
2023-02-13T19:48:37.609Z,106.20
2023-02-13T19:51:12.997Z,98.30
2023-02-13T19:53:39.452Z,94.78
2023-02-13T19:56:07.620Z,94.07
2023-02-13T19:58:37.559Z,98.90
2023-02-13T20:01:19.351Z,97.20
2023-02-13T20:03:46.703Z,100.68
2023-02-13T20:06:25.838Z,99.50
2023-02-13T20:08:52.655Z,92.38
2023-02-13T20:11:21.133Z,95.35
2023-02-13T20:13:48.545Z,88.90
2023-02-13T20:16:16.564Z,93.90
2023-02-13T20:18:43.406Z,90.40
2023-02-13T20:21:12.869Z,94.80
2023-02-13T20:23:39.847Z,92.32
2023-02-13T20:26:08.598Z,89.70
2023-02-13T20:28:35.006Z,90.90
2023-02-13T20:31:03.803Z,92.53
2023-02-13T20:33:30.622Z,90.80
2023-02-13T20:35:57.011Z,81.10
2023-02-13T20:38:23.427Z,87.60
2023-02-13T20:40:49.798Z,77.50
2023-02-13T20:43:16.156Z,79.15
2023-02-13T20:45:42.548Z,79.30
2023-02-13T20:48:09.001Z,79.75
2023-02-13T20:50:35.393Z,83.93
2023-02-13T20:53:01.788Z,80.70
2023-02-13T20:55:28.151Z,79.07
2023-02-13T20:57:54.534Z,98.18
2023-02-13T21:00:21.197Z,89.05
2023-02-13T21:02:47.583Z,84.03
2023-02-13T21:05:13.987Z,80.28
2023-02-13T21:07:40.583Z,82.65
2023-02-13T21:10:07.456Z,83.05
2023-02-13T21:12:34.851Z,95.07
2023-02-13T21:15:01.230Z,94.60
2023-02-13T21:17:27.567Z,89.55
2023-02-13T21:19:53.948Z,91.85
2023-02-13T21:22:20.314Z,88.45
2023-02-13T21:24:49.624Z,82.68
2023-02-13T21:27:15.995Z,90.33
2023-02-13T21:29:42.362Z,95.38
2023-02-13T21:32:08.849Z,79.10
2023-02-13T21:34:35.308Z,85.72
2023-02-13T21:37:02.154Z,93.15
2023-02-13T21:39:28.620Z,85.77
2023-02-13T21:41:55.030Z,85.45
2023-02-13T21:44:21.683Z,83.50
2023-02-13T21:46:48.172Z,89.65
2023-02-13T21:49:17.690Z,103.70
2023-02-13T21:51:44.894Z,97.83
2023-02-13T21:54:11.800Z,98.50
2023-02-13T21:56:40.447Z,97.55
2023-02-13T21:59:06.881Z,93.13
2023-02-13T22:01:35.789Z,88.90
2023-02-13T22:04:04.602Z,93.73
2023-02-13T22:06:33.586Z,82.55
2023-02-13T22:09:02.978Z,86.10
2023-02-13T22:11:29.983Z,84.03
2023-02-13T22:14:00.085Z,75.45
2023-02-13T22:16:26.669Z,70.47
2023-02-13T22:18:53.170Z,67.35
2023-02-13T22:21:22.105Z,58.63
2023-02-13T22:23:49.881Z,82.35
2023-02-13T22:26:18.398Z,72.57
2023-02-13T22:28:45.137Z,56.50
2023-02-13T22:31:12.900Z,66.30
2023-02-13T22:33:39.804Z,56.83
2023-02-13T22:36:06.846Z,49.58
2023-02-13T22:38:34.882Z,49.05
2023-02-13T22:41:12.749Z,48.07
2023-02-13T22:43:39.609Z,46.92
2023-02-13T22:46:13.007Z,43.45
2023-02-13T22:48:40.361Z,45.63
2023-02-13T22:51:11.614Z,42.15
2023-02-13T22:53:38.170Z,40.40
2023-02-13T22:56:06.063Z,44.38
2023-02-13T22:58:32.443Z,44.35
2023-02-13T23:00:59.634Z,46.47
2023-02-13T23:03:26.438Z,46.85
2023-02-13T23:05:53.378Z,42.83
2023-02-13T23:08:19.948Z,40.50
2023-02-13T23:11:06.294Z,37.50
2023-02-13T23:13:32.706Z,42.58
2023-02-13T23:15:59.140Z,39.78
2023-02-13T23:18:25.514Z,37.70
2023-02-13T23:20:51.899Z,36.05
2023-02-13T23:23:18.284Z,34.97
2023-02-13T23:25:44.676Z,35.63
2023-02-13T23:28:11.099Z,34.92
2023-02-13T23:30:37.447Z,37.17
2023-02-13T23:33:03.950Z,38.75
2023-02-13T23:35:30.383Z,40.33
2023-02-13T23:37:56.723Z,38.15
2023-02-13T23:40:23.133Z,46.88
2023-02-13T23:42:49.522Z,52.47
2023-02-13T23:45:15.979Z,59.08
2023-02-13T23:47:42.334Z,46.65
2023-02-13T23:50:09.348Z,63.75
2023-02-13T23:52:35.838Z,45.10
2023-02-13T23:55:02.501Z,44.17
2023-02-13T23:57:29.285Z,39.22
2023-02-13T23:59:55.665Z,35.33
